createdAt,value
2022-09-28T00:00:01.054Z,997.31
2022-09-28T00:01:11.219Z,997.35
2022-09-28T00:02:01.598Z,997.33
2022-09-28T00:03:04.035Z,997.32
2022-09-28T00:04:01.297Z,997.35
2022-09-28T00:05:01.702Z,997.33
2022-09-28T00:06:14.787Z,997.32
2022-09-28T00:07:04.992Z,997.32
2022-09-28T00:08:01.697Z,997.33
2022-09-28T00:09:01.090Z,997.31
2022-09-28T00:10:01.089Z,997.31
2022-09-28T00:11:16.641Z,997.26
2022-09-28T00:12:02.219Z,997.29
2022-09-28T00:13:01.869Z,997.25
2022-09-28T00:14:01.941Z,997.26
2022-09-28T00:15:00.495Z,997.29
2022-09-28T00:16:00.290Z,997.28
2022-09-28T00:16:59.986Z,997.26
2022-09-28T00:17:59.651Z,997.24
2022-09-28T00:19:01.837Z,997.27
2022-09-28T00:20:01.732Z,997.24
2022-09-28T00:21:01.299Z,997.24
2022-09-28T00:22:01.121Z,997.24
2022-09-28T00:23:01.149Z,997.24
2022-09-28T00:24:01.185Z,997.24
2022-09-28T00:25:01.363Z,997.24
2022-09-28T00:26:01.833Z,997.23
2022-09-28T00:27:01.153Z,997.2
2022-09-28T00:28:01.186Z,997.23
2022-09-28T00:29:01.072Z,997.21
2022-09-28T00:30:01.059Z,997.19
2022-09-28T00:31:01.087Z,997.17
2022-09-28T00:32:01.166Z,997.22
2022-09-28T00:33:01.085Z,997.19
2022-09-28T00:34:01.712Z,997.17
2022-09-28T00:35:01.452Z,997.2
2022-09-28T00:36:01.579Z,997.2
2022-09-28T00:37:00.802Z,997.16
2022-09-28T00:38:00.508Z,997.13
2022-09-28T00:39:00.190Z,997.16
2022-09-28T00:39:59.878Z,997.17
2022-09-28T00:40:59.737Z,997.17
2022-09-28T00:42:04.499Z,997.13
2022-09-28T00:43:01.394Z,997.18
2022-09-28T00:44:02.330Z,997.15
2022-09-28T00:45:02.162Z,997.12
2022-09-28T00:46:02.121Z,997.13
2022-09-28T00:47:01.082Z,997.08
2022-09-28T00:48:01.082Z,997.1
2022-09-28T00:49:01.082Z,997.09
2022-09-28T00:50:01.088Z,997.12
2022-09-28T00:51:01.096Z,997.09
2022-09-28T00:52:01.510Z,997.06
2022-09-28T00:53:01.212Z,997.07
2022-09-28T00:54:01.110Z,997.06
2022-09-28T00:55:01.121Z,997.09
2022-09-28T00:56:01.128Z,997.07
2022-09-28T00:57:01.138Z,997.06
2022-09-28T00:58:01.140Z,997.02
2022-09-28T00:59:01.214Z,997.06
2022-09-28T01:00:01.260Z,996.98
2022-09-28T01:01:01.342Z,997.01
2022-09-28T01:02:01.148Z,997.01
2022-09-28T01:03:01.091Z,996.97
2022-09-28T01:04:01.068Z,996.98
2022-09-28T01:05:01.097Z,997
2022-09-28T01:06:01.049Z,996.98
2022-09-28T01:07:01.116Z,997.02
2022-09-28T01:08:01.103Z,997.02
2022-09-28T01:09:01.444Z,997
2022-09-28T01:10:04.548Z,996.99
2022-09-28T01:11:01.509Z,996.99
2022-09-28T01:12:02.625Z,997
2022-09-28T01:13:01.307Z,996.99
2022-09-28T01:14:02.490Z,996.97
2022-09-28T01:15:02.675Z,996.96
2022-09-28T01:16:01.365Z,996.94
2022-09-28T01:17:01.194Z,996.99
2022-09-28T01:18:01.371Z,996.94
2022-09-28T01:19:04.107Z,996.97
2022-09-28T01:20:01.057Z,996.91
2022-09-28T01:21:01.046Z,996.95
2022-09-28T01:22:01.120Z,996.94
2022-09-28T01:23:03.792Z,996.95
2022-09-28T01:24:01.099Z,996.89
2022-09-28T01:25:01.113Z,996.93
2022-09-28T01:26:01.126Z,996.93
2022-09-28T01:27:00.812Z,996.89
2022-09-28T01:28:00.424Z,996.95
2022-09-28T01:29:00.095Z,996.9
2022-09-28T01:29:59.623Z,996.95
2022-09-28T01:31:01.597Z,996.92
2022-09-28T01:32:04.355Z,996.87
2022-09-28T01:33:01.744Z,996.94
2022-09-28T01:34:01.787Z,996.9
2022-09-28T01:35:04.416Z,996.96
2022-09-28T01:36:04.515Z,996.93
2022-09-28T01:37:06.442Z,996.9
2022-09-28T01:38:01.093Z,996.89
2022-09-28T01:39:01.053Z,996.89
2022-09-28T01:40:01.717Z,996.92
2022-09-28T01:41:01.116Z,996.9
2022-09-28T01:42:10.000Z,996.92
2022-09-28T01:43:02.369Z,996.87
2022-09-28T01:44:00.726Z,996.84
2022-09-28T01:45:00.303Z,996.83
2022-09-28T01:45:59.999Z,996.81
2022-09-28T01:47:13.162Z,996.77
2022-09-28T01:48:01.580Z,996.77
2022-09-28T01:49:01.032Z,996.8
2022-09-28T01:50:01.484Z,996.78
2022-09-28T01:51:01.072Z,996.74
2022-09-28T01:52:01.057Z,996.75
2022-09-28T01:53:01.099Z,996.77
2022-09-28T01:54:01.096Z,996.76
2022-09-28T01:55:01.041Z,996.76
2022-09-28T01:56:01.042Z,996.75
2022-09-28T01:57:01.112Z,996.79
2022-09-28T01:58:01.048Z,996.76
2022-09-28T01:59:01.053Z,996.67
2022-09-28T02:00:16.431Z,996.73
2022-09-28T02:01:01.218Z,996.8
2022-09-28T02:02:02.045Z,996.76
2022-09-28T02:03:02.599Z,996.72
2022-09-28T02:04:01.439Z,996.71
2022-09-28T02:05:01.170Z,996.73
2022-09-28T02:06:01.076Z,996.63
2022-09-28T02:07:01.045Z,996.62
2022-09-28T02:08:01.076Z,996.65
2022-09-28T02:09:01.097Z,996.61
2022-09-28T02:10:01.108Z,996.59
2022-09-28T02:11:01.323Z,996.61
2022-09-28T02:12:01.117Z,996.59
2022-09-28T02:13:01.144Z,996.56
2022-09-28T02:14:01.243Z,996.55
2022-09-28T02:15:01.133Z,996.58
2022-09-28T02:16:01.228Z,996.57
2022-09-28T02:17:01.145Z,996.6
2022-09-28T02:18:01.157Z,996.64
2022-09-28T02:19:01.588Z,996.59
2022-09-28T02:20:00.798Z,996.64
2022-09-28T02:21:00.439Z,996.62
2022-09-28T02:22:00.032Z,996.63
2022-09-28T02:22:59.762Z,996.64
2022-09-28T02:24:01.749Z,996.65
2022-09-28T02:25:01.761Z,996.61
2022-09-28T02:26:02.019Z,996.64
2022-09-28T02:27:01.041Z,996.57
2022-09-28T02:28:01.058Z,996.57
2022-09-28T02:29:01.120Z,996.56
2022-09-28T02:30:01.336Z,996.57
2022-09-28T02:31:01.340Z,996.61
2022-09-28T02:32:01.656Z,996.55
2022-09-28T02:33:01.471Z,996.56
2022-09-28T02:34:02.501Z,996.63
2022-09-28T02:37:01.042Z,996.57
2022-09-28T02:38:01.074Z,996.56
2022-09-28T02:39:01.754Z,996.53
2022-09-28T02:40:01.189Z,996.58
2022-09-28T02:41:03.936Z,996.59
2022-09-28T02:42:02.254Z,996.54
2022-09-28T02:43:01.101Z,996.55
2022-09-28T02:44:01.115Z,996.54
2022-09-28T02:45:01.751Z,996.55
2022-09-28T02:46:01.198Z,996.53
2022-09-28T02:47:01.125Z,996.52
2022-09-28T02:48:01.523Z,996.55
2022-09-28T02:49:20.475Z,996.52
2022-09-28T02:50:01.168Z,996.48
2022-09-28T02:51:01.887Z,996.49
2022-09-28T02:52:02.020Z,996.49
2022-09-28T02:53:01.194Z,996.5
2022-09-28T02:54:01.503Z,996.52
2022-09-28T02:55:01.281Z,996.47
2022-09-28T02:56:01.451Z,996.44
2022-09-28T02:57:01.273Z,996.46
2022-09-28T02:58:01.108Z,996.43
2022-09-28T02:59:01.114Z,996.44
2022-09-28T03:00:01.063Z,996.42
2022-09-28T03:01:01.180Z,996.43
2022-09-28T03:02:01.156Z,996.41
2022-09-28T03:03:01.052Z,996.4
2022-09-28T03:04:01.450Z,996.43
2022-09-28T03:05:01.716Z,996.45
2022-09-28T03:06:01.525Z,996.44
2022-09-28T03:07:02.150Z,996.42
2022-09-28T03:08:02.705Z,996.41
2022-09-28T03:09:01.063Z,996.41
2022-09-28T03:10:01.210Z,996.45
2022-09-28T03:12:33.476Z,996.45
2022-09-28T03:13:05.283Z,996.4
2022-09-28T03:14:02.200Z,996.37
2022-09-28T03:15:01.172Z,996.35
2022-09-28T03:16:01.172Z,996.33
2022-09-28T03:17:01.130Z,996.34
2022-09-28T03:18:08.556Z,996.32
2022-09-28T03:19:01.224Z,996.34
2022-09-28T03:20:01.978Z,996.31
2022-09-28T03:21:01.346Z,996.32
2022-09-28T03:22:01.044Z,996.31
2022-09-28T03:23:26.128Z,996.32
2022-09-28T03:24:01.279Z,996.27
2022-09-28T03:25:02.064Z,996.29
2022-09-28T03:26:03.153Z,996.23
2022-09-28T03:27:01.873Z,996.21
2022-09-28T03:28:13.702Z,996.2
2022-09-28T03:29:01.063Z,996.21
2022-09-28T03:30:07.821Z,996.22
2022-09-28T03:31:01.114Z,996.2
2022-09-28T03:32:01.174Z,996.23
2022-09-28T03:33:15.607Z,996.18
2022-09-28T03:34:01.520Z,996.2
2022-09-28T03:35:01.703Z,996.2
2022-09-28T03:36:01.710Z,996.22
2022-09-28T03:37:01.155Z,996.16
2022-09-28T03:38:01.065Z,996.19
2022-09-28T03:39:00.684Z,996.18
2022-09-28T03:40:00.297Z,996.13
2022-09-28T03:41:00.350Z,996.16
2022-09-28T03:42:00.161Z,996.18
2022-09-28T03:42:59.872Z,996.14
2022-09-28T03:44:02.179Z,996.19
2022-09-28T03:45:01.563Z,996.17
2022-09-28T03:46:01.262Z,996.16
2022-09-28T03:47:01.057Z,996.18
2022-09-28T03:48:01.034Z,996.18
2022-09-28T03:49:01.037Z,996.17
2022-09-28T03:50:01.137Z,996.14
2022-09-28T03:51:01.342Z,996.12
2022-09-28T03:52:01.329Z,996.1
2022-09-28T03:53:01.349Z,996.12
2022-09-28T03:54:04.121Z,996.1
2022-09-28T03:55:01.932Z,996.1
2022-09-28T03:56:07.854Z,996.06
2022-09-28T03:57:01.083Z,996.05
2022-09-28T03:58:01.077Z,996.07
2022-09-28T03:59:01.711Z,996.03
2022-09-28T04:00:01.696Z,996.04
2022-09-28T04:01:01.517Z,996.06
2022-09-28T04:02:01.239Z,996.05
2022-09-28T04:03:01.148Z,996.03
2022-09-28T04:04:01.580Z,996.07
2022-09-28T04:05:02.273Z,995.98
2022-09-28T04:06:01.468Z,995.98
2022-09-28T04:07:01.348Z,995.99
2022-09-28T04:08:01.357Z,995.99
2022-09-28T04:09:02.078Z,995.97
2022-09-28T04:10:02.220Z,996
2022-09-28T04:11:01.065Z,995.95
2022-09-28T04:12:04.280Z,995.98
2022-09-28T04:13:01.089Z,995.97
2022-09-28T04:14:01.097Z,995.98
2022-09-28T04:15:01.078Z,995.96
2022-09-28T04:16:01.597Z,995.97
2022-09-28T04:17:01.478Z,995.95
2022-09-28T04:18:01.105Z,995.95
2022-09-28T04:19:01.051Z,995.95
2022-09-28T04:20:01.039Z,995.93
2022-09-28T04:21:01.492Z,995.91
2022-09-28T04:22:02.027Z,995.94
2022-09-28T04:23:01.425Z,995.89
2022-09-28T04:24:00.657Z,995.92
2022-09-28T04:25:00.327Z,995.91
2022-09-28T04:26:00.036Z,995.86
2022-09-28T04:26:59.634Z,995.88
2022-09-28T04:28:01.280Z,995.86
2022-09-28T04:29:06.318Z,995.85
2022-09-28T04:30:01.707Z,995.86
2022-09-28T04:31:01.401Z,995.89
2022-09-28T04:32:01.109Z,995.86
2022-09-28T04:33:01.102Z,995.84
2022-09-28T04:34:01.042Z,995.9
2022-09-28T04:35:01.425Z,995.89
2022-09-28T04:36:01.165Z,995.88
2022-09-28T04:37:01.773Z,995.88
2022-09-28T04:38:01.606Z,995.91
2022-09-28T04:39:01.193Z,995.91
2022-09-28T04:40:00.753Z,995.91
2022-09-28T04:41:00.480Z,995.93
2022-09-28T04:42:00.141Z,995.92
2022-09-28T04:42:59.715Z,995.98
2022-09-28T04:44:01.380Z,995.95
2022-09-28T04:45:02.179Z,995.96
2022-09-28T04:46:01.128Z,995.98
2022-09-28T04:47:05.015Z,995.98
2022-09-28T04:48:01.114Z,996.01
2022-09-28T04:49:03.479Z,996
2022-09-28T04:50:01.513Z,995.98
2022-09-28T04:51:01.220Z,996.02
2022-09-28T04:52:00.671Z,996.01
2022-09-28T04:53:00.320Z,996.06
2022-09-28T04:54:05.601Z,996.06
2022-09-28T04:55:01.444Z,996.06
2022-09-28T04:56:01.185Z,996.07
2022-09-28T04:57:01.056Z,996.07
2022-09-28T04:58:01.081Z,996.11
2022-09-28T04:59:08.577Z,996.1
2022-09-28T05:00:01.044Z,996.11
2022-09-28T05:01:01.388Z,996.12
2022-09-28T05:02:02.153Z,996.06
2022-09-28T05:03:01.794Z,996.15
2022-09-28T05:04:12.941Z,996.15
2022-09-28T05:05:01.820Z,996.17
2022-09-28T05:06:01.097Z,996.16
2022-09-28T05:07:01.114Z,996.16
2022-09-28T05:08:01.407Z,996.22
2022-09-28T05:09:15.228Z,996.2
2022-09-28T05:10:01.767Z,996.25
2022-09-28T05:11:02.471Z,996.21
2022-09-28T05:12:02.059Z,996.26
2022-09-28T05:13:02.139Z,996.22
2022-09-28T05:14:16.825Z,996.26
2022-09-28T05:15:02.265Z,996.25
2022-09-28T05:16:05.474Z,996.18
2022-09-28T05:17:02.328Z,996.23
2022-09-28T05:18:00.852Z,996.2
2022-09-28T05:19:00.484Z,996.21
2022-09-28T05:20:00.504Z,996.24
2022-09-28T05:21:00.249Z,996.2
2022-09-28T05:21:59.860Z,996.18
2022-09-28T05:23:01.522Z,996.17
2022-09-28T05:24:01.303Z,996.16
2022-09-28T05:25:02.221Z,996.17
2022-09-28T05:26:01.043Z,996.16
2022-09-28T05:27:00.744Z,996.17
2022-09-28T05:28:00.972Z,996.13
2022-09-28T05:29:01.061Z,996.11
2022-09-28T05:30:01.065Z,996.07
2022-09-28T05:31:01.169Z,996.02
2022-09-28T05:32:01.219Z,996.01
2022-09-28T05:33:01.185Z,996.02
2022-09-28T05:34:01.202Z,996.05
2022-09-28T05:35:02.672Z,996.03
2022-09-28T05:36:01.910Z,996.02
2022-09-28T05:37:01.103Z,995.98
2022-09-28T05:38:01.439Z,995.96
2022-09-28T05:39:01.131Z,995.91
2022-09-28T05:40:01.154Z,995.87
2022-09-28T05:41:06.315Z,995.87
2022-09-28T05:42:02.789Z,995.83
2022-09-28T05:43:01.271Z,995.84
2022-09-28T05:44:01.291Z,995.83
2022-09-28T05:45:00.859Z,995.74
2022-09-28T05:46:00.647Z,995.73
2022-09-28T05:47:00.329Z,995.76
2022-09-28T05:48:00.063Z,995.7
2022-09-28T05:48:59.751Z,995.69
2022-09-28T05:50:01.914Z,995.67
2022-09-28T05:51:01.884Z,995.63
2022-09-28T05:52:00.599Z,995.62
2022-09-28T05:53:01.037Z,995.6
2022-09-28T05:54:05.709Z,995.61
2022-09-28T05:55:01.779Z,995.56
2022-09-28T05:56:01.052Z,995.58
2022-09-28T05:57:00.735Z,995.54
2022-09-28T05:58:00.422Z,995.54
2022-09-28T05:59:00.131Z,995.48
2022-09-28T06:00:00.058Z,995.53
2022-09-28T06:00:59.777Z,995.47
2022-09-28T06:01:59.502Z,995.44
2022-09-28T06:03:03.441Z,995.48
2022-09-28T06:04:01.102Z,995.44
2022-09-28T06:05:01.088Z,995.46
2022-09-28T06:06:01.083Z,995.52
2022-09-28T06:07:01.211Z,995.52
2022-09-28T06:08:01.134Z,995.53
2022-09-28T06:09:01.446Z,995.51
2022-09-28T06:10:01.119Z,995.51
2022-09-28T06:11:01.124Z,995.52
2022-09-28T06:12:01.165Z,995.5
2022-09-28T06:13:01.275Z,995.42
2022-09-28T06:14:01.157Z,995.41
2022-09-28T06:15:01.150Z,995.39
2022-09-28T06:16:01.246Z,995.39
2022-09-28T06:17:01.596Z,995.36
2022-09-28T06:18:01.171Z,995.38
2022-09-28T06:19:01.053Z,995.36
2022-09-28T06:20:01.077Z,995.34
2022-09-28T06:21:01.080Z,995.36
2022-09-28T06:22:01.222Z,995.37
2022-09-28T06:23:01.098Z,995.4
2022-09-28T06:24:01.114Z,995.42
2022-09-28T06:25:01.218Z,995.42
2022-09-28T06:26:03.953Z,995.5
2022-09-28T06:27:01.213Z,995.51
2022-09-28T06:28:01.456Z,995.5
2022-09-28T06:29:01.303Z,995.54
2022-09-28T06:30:01.061Z,995.54
2022-09-28T06:31:01.244Z,995.56
2022-09-28T06:32:01.987Z,995.51
2022-09-28T06:33:01.733Z,995.5
2022-09-28T06:34:02.616Z,995.5
2022-09-28T06:35:01.609Z,995.55
2022-09-28T06:36:01.686Z,995.55
2022-09-28T06:37:01.297Z,995.52
2022-09-28T06:38:01.092Z,995.53
2022-09-28T06:39:01.160Z,995.52
2022-09-28T06:40:05.111Z,995.5
2022-09-28T06:41:01.337Z,995.52
2022-09-28T06:42:01.281Z,995.49
2022-09-28T06:43:01.294Z,995.51
2022-09-28T06:44:01.337Z,995.54
2022-09-28T06:45:06.862Z,995.51
2022-09-28T06:46:01.234Z,995.47
2022-09-28T06:47:01.989Z,995.5
2022-09-28T06:48:01.468Z,995.47
2022-09-28T06:49:01.053Z,995.45
2022-09-28T06:50:10.845Z,995.48
2022-09-28T06:51:01.456Z,995.43
2022-09-28T06:52:01.807Z,995.46
2022-09-28T06:53:01.099Z,995.41
2022-09-28T06:54:01.152Z,995.44
2022-09-28T06:55:14.771Z,995.38
2022-09-28T06:56:01.260Z,995.35
2022-09-28T06:57:01.139Z,995.34
2022-09-28T06:58:01.137Z,995.36
2022-09-28T06:59:01.252Z,995.34
2022-09-28T07:00:16.718Z,995.37
2022-09-28T07:01:02.301Z,995.4
2022-09-28T07:02:01.212Z,995.36
2022-09-28T07:03:01.062Z,995.4
2022-09-28T07:04:01.064Z,995.43
2022-09-28T07:05:01.079Z,995.43
2022-09-28T07:06:01.038Z,995.45
2022-09-28T07:07:01.053Z,995.47
2022-09-28T07:08:01.549Z,995.46
2022-09-28T07:09:21.081Z,995.46
2022-09-28T07:10:01.217Z,995.4
2022-09-28T07:11:01.057Z,995.36
2022-09-28T07:12:01.111Z,995.34
2022-09-28T07:13:01.112Z,995.33
2022-09-28T07:14:01.124Z,995.36
2022-09-28T07:15:01.128Z,995.34
2022-09-28T07:16:01.524Z,995.36
2022-09-28T07:17:13.639Z,995.4
2022-09-28T07:18:03.506Z,995.37
2022-09-28T07:19:01.689Z,995.44
2022-09-28T07:20:12.525Z,995.4
2022-09-28T07:21:01.683Z,995.36
2022-09-28T07:22:05.063Z,995.32
2022-09-28T07:23:13.845Z,995.34
2022-09-28T07:24:01.748Z,995.34
2022-09-28T07:25:01.792Z,995.3
2022-09-28T07:26:01.619Z,995.33
2022-09-28T07:27:01.424Z,995.37
2022-09-28T07:28:01.125Z,995.31
2022-09-28T07:29:02.068Z,995.34
2022-09-28T07:30:01.493Z,995.32
2022-09-28T07:31:01.197Z,995.27
2022-09-28T07:32:01.024Z,995.35
2022-09-28T07:33:00.761Z,995.36
2022-09-28T07:34:00.449Z,995.39
2022-09-28T07:35:00.166Z,995.38
2022-09-28T07:35:59.792Z,995.4
2022-09-28T07:37:02.092Z,995.39
2022-09-28T07:38:01.057Z,995.38
2022-09-28T07:39:01.104Z,995.45
2022-09-28T07:40:01.096Z,995.48
2022-09-28T07:41:00.798Z,995.43
2022-09-28T07:42:03.019Z,995.4
2022-09-28T07:43:01.421Z,995.4
2022-09-28T07:44:01.820Z,995.41
2022-09-28T07:45:01.113Z,995.37
2022-09-28T07:46:01.521Z,995.36
2022-09-28T07:47:02.233Z,995.41
2022-09-28T07:48:01.858Z,995.4
2022-09-28T07:49:01.961Z,995.42
2022-09-28T07:50:01.153Z,995.49
2022-09-28T07:51:01.270Z,995.47
2022-09-28T07:52:01.558Z,995.54
2022-09-28T07:53:01.589Z,995.58
2022-09-28T07:54:01.415Z,995.55
2022-09-28T07:55:06.592Z,995.52
2022-09-28T07:56:01.140Z,995.48
2022-09-28T07:57:01.118Z,995.46
2022-09-28T07:58:01.105Z,995.38
2022-09-28T07:59:01.117Z,995.39
2022-09-28T08:00:01.152Z,995.4
2022-09-28T08:01:02.100Z,995.35
2022-09-28T08:02:01.402Z,995.44
2022-09-28T08:03:01.526Z,995.41
2022-09-28T08:04:01.250Z,995.43
2022-09-28T08:05:02.372Z,995.36
2022-09-28T08:06:01.239Z,995.38
2022-09-28T08:07:01.058Z,995.37
2022-09-28T08:08:00.826Z,995.43
2022-09-28T08:09:00.448Z,995.39
2022-09-28T08:10:00.043Z,995.41
2022-09-28T08:10:59.595Z,995.39
2022-09-28T08:12:01.356Z,995.42
2022-09-28T08:13:02.940Z,995.46
2022-09-28T08:14:01.399Z,995.53
2022-09-28T08:15:01.130Z,995.58
2022-09-28T08:16:01.136Z,995.58
2022-09-28T08:17:01.054Z,995.58
2022-09-28T08:18:02.779Z,995.62
2022-09-28T08:19:01.153Z,995.65
2022-09-28T08:20:01.166Z,995.6
2022-09-28T08:21:01.704Z,995.59
2022-09-28T08:22:01.515Z,995.57
2022-09-28T08:23:01.071Z,995.58
2022-09-28T08:24:01.070Z,995.6
2022-09-28T08:25:01.034Z,995.56
2022-09-28T08:26:04.374Z,995.53
2022-09-28T08:27:04.426Z,995.52
2022-09-28T08:28:01.502Z,995.48
2022-09-28T08:29:01.110Z,995.5
2022-09-28T08:30:01.118Z,995.46
2022-09-28T08:31:06.842Z,995.44
2022-09-28T08:32:01.865Z,995.42
2022-09-28T08:33:01.010Z,995.4
2022-09-28T08:34:01.127Z,995.36
2022-09-28T08:35:01.153Z,995.37
2022-09-28T08:36:09.092Z,995.37
2022-09-28T08:37:01.258Z,995.35
2022-09-28T08:38:01.171Z,995.34
2022-09-28T08:39:01.061Z,995.38
2022-09-28T08:40:01.064Z,995.39
2022-09-28T08:41:11.643Z,995.32
2022-09-28T08:42:02.064Z,995.38
2022-09-28T08:43:01.601Z,995.31
2022-09-28T08:44:01.109Z,995.25
2022-09-28T08:45:01.103Z,995.27
2022-09-28T08:46:14.082Z,995.23
2022-09-28T08:47:01.818Z,995.2
2022-09-28T08:48:01.135Z,995.22
2022-09-28T08:49:23.743Z,995.26
2022-09-28T08:50:01.515Z,995.25
2022-09-28T08:51:01.246Z,995.25
2022-09-28T08:52:01.156Z,995.29
2022-09-28T08:53:01.151Z,995.34
2022-09-28T08:54:01.062Z,995.36
2022-09-28T08:55:01.061Z,995.42
2022-09-28T08:56:01.062Z,995.37
2022-09-28T08:57:01.134Z,995.39
2022-09-28T08:58:01.062Z,995.39
2022-09-28T08:59:01.216Z,995.44
2022-09-28T09:00:01.087Z,995.42
2022-09-28T09:01:01.153Z,995.34
2022-09-28T09:02:00.971Z,995.33
2022-09-28T09:03:01.127Z,995.34
2022-09-28T09:04:01.099Z,995.3
2022-09-28T09:05:01.166Z,995.3
2022-09-28T09:06:01.394Z,995.31
2022-09-28T09:07:01.551Z,995.29
2022-09-28T09:08:02.076Z,995.31
2022-09-28T09:09:01.173Z,995.3
2022-09-28T09:10:01.153Z,995.31
2022-09-28T09:11:01.879Z,995.27
2022-09-28T09:12:01.462Z,995.27
2022-09-28T09:13:00.421Z,995.31
2022-09-28T09:14:00.036Z,995.35
2022-09-28T09:14:59.678Z,995.33
2022-09-28T09:16:01.922Z,995.3
2022-09-28T09:17:01.349Z,995.35
2022-09-28T09:18:01.941Z,995.32
2022-09-28T09:19:01.498Z,995.39
2022-09-28T09:20:01.224Z,995.39
2022-09-28T09:21:01.133Z,995.39
2022-09-28T09:22:00.718Z,995.35
2022-09-28T09:23:00.310Z,995.36
2022-09-28T09:23:59.899Z,995.38
2022-09-28T09:24:59.575Z,995.42
2022-09-28T09:26:01.729Z,995.38
2022-09-28T09:27:01.654Z,995.39
2022-09-28T09:28:01.382Z,995.39
2022-09-28T09:29:01.100Z,995.37
2022-09-28T09:30:01.120Z,995.37
2022-09-28T09:31:01.156Z,995.39
2022-09-28T09:32:00.910Z,995.36
2022-09-28T09:33:01.238Z,995.37
2022-09-28T09:34:01.127Z,995.39
2022-09-28T09:35:01.136Z,995.41
2022-09-28T09:36:01.140Z,995.41
2022-09-28T09:37:00.810Z,995.4
2022-09-28T09:38:00.403Z,995.36
2022-09-28T09:39:00.009Z,995.36
2022-09-28T09:39:59.708Z,995.38
2022-09-28T09:41:01.422Z,995.38
2022-09-28T09:42:01.062Z,995.37
2022-09-28T09:43:01.070Z,995.43
2022-09-28T09:44:01.069Z,995.39
2022-09-28T09:45:01.106Z,995.4
2022-09-28T09:46:00.843Z,995.38
2022-09-28T09:47:00.582Z,995.32
2022-09-28T09:48:00.263Z,995.33
2022-09-28T09:48:59.981Z,995.3
2022-09-28T09:50:01.031Z,995.35
2022-09-28T09:51:00.728Z,995.28
2022-09-28T09:52:00.426Z,995.23
2022-09-28T09:53:00.620Z,995.26
2022-09-28T09:54:00.412Z,995.23
2022-09-28T09:55:00.128Z,995.21
2022-09-28T09:55:59.802Z,995.22
2022-09-28T09:57:01.566Z,995.15
2022-09-28T09:58:01.113Z,995.23
2022-09-28T09:59:01.061Z,995.21
2022-09-28T10:00:01.094Z,995.26
2022-09-28T10:01:01.229Z,995.26
2022-09-28T10:02:00.638Z,995.22
2022-09-28T10:03:00.805Z,995.22
2022-09-28T10:04:00.487Z,995.25
2022-09-28T10:05:00.066Z,995.25
2022-09-28T10:05:59.666Z,995.24
2022-09-28T10:07:01.327Z,995.24
2022-09-28T10:08:01.023Z,995.26
2022-09-28T10:09:01.147Z,995.26
2022-09-28T10:10:01.145Z,995.29
2022-09-28T10:11:01.167Z,995.22
2022-09-28T10:12:01.390Z,995.25
2022-09-28T10:13:01.456Z,995.22
2022-09-28T10:14:01.067Z,995.26
2022-09-28T10:15:01.212Z,995.3
2022-09-28T10:16:01.112Z,995.3
2022-09-28T10:17:04.363Z,995.29
2022-09-28T10:18:01.112Z,995.23
2022-09-28T10:19:01.099Z,995.24
2022-09-28T10:20:01.984Z,995.26
2022-09-28T10:21:01.492Z,995.25
2022-09-28T10:22:06.779Z,995.22
2022-09-28T10:23:02.440Z,995.24
2022-09-28T10:24:01.571Z,995.27
2022-09-28T10:25:01.084Z,995.26
2022-09-28T10:26:01.168Z,995.23
2022-09-28T10:27:09.159Z,995.26
2022-09-28T10:28:00.785Z,995.2
2022-09-28T10:29:00.442Z,995.18
2022-09-28T10:30:00.197Z,995.14
2022-09-28T10:30:59.996Z,995.23
2022-09-28T10:32:11.079Z,995.25
2022-09-28T10:33:01.687Z,995.19
2022-09-28T10:34:02.630Z,995.21
2022-09-28T10:35:01.281Z,995.23
2022-09-28T10:36:01.135Z,995.22
2022-09-28T10:37:13.899Z,995.28
2022-09-28T10:38:01.140Z,995.25
2022-09-28T10:39:01.186Z,995.22
2022-09-28T10:40:01.165Z,995.24
2022-09-28T10:41:01.627Z,995.21
2022-09-28T10:42:16.897Z,995.27
2022-09-28T10:43:01.355Z,995.21
2022-09-28T10:44:01.953Z,995.21
2022-09-28T10:45:01.115Z,995.25
2022-09-28T10:46:01.197Z,995.21
2022-09-28T10:47:00.861Z,995.21
2022-09-28T10:48:00.560Z,995.23
2022-09-28T10:49:00.270Z,995.2
2022-09-28T10:49:59.881Z,995.21
2022-09-28T10:51:01.910Z,995.2
2022-09-28T10:52:00.685Z,995.23
2022-09-28T10:53:00.328Z,995.24
2022-09-28T10:53:59.971Z,995.26
2022-09-28T10:54:59.624Z,995.23
2022-09-28T10:56:01.217Z,995.19
2022-09-28T10:57:00.814Z,995.26
2022-09-28T10:58:00.474Z,995.23
2022-09-28T10:59:00.108Z,995.24
2022-09-28T10:59:59.703Z,995.25
2022-09-28T11:01:02.018Z,995.19
2022-09-28T11:02:01.615Z,995.25
2022-09-28T11:03:01.931Z,995.18
2022-09-28T11:04:01.678Z,995.16
2022-09-28T11:05:01.057Z,995.22
2022-09-28T11:06:01.098Z,995.21
2022-09-28T11:07:01.522Z,995.21
2022-09-28T11:08:00.903Z,995.15
2022-09-28T11:09:01.603Z,995.2
2022-09-28T11:10:02.609Z,995.16
2022-09-28T11:11:01.508Z,995.18
2022-09-28T11:12:00.614Z,995.12
2022-09-28T11:13:00.206Z,995.09
2022-09-28T11:13:59.802Z,995.13
2022-09-28T11:15:01.564Z,995.11
2022-09-28T11:16:01.768Z,995.11
2022-09-28T11:17:00.959Z,995.11
2022-09-28T11:18:01.059Z,995.1
2022-09-28T11:19:01.269Z,995.09
2022-09-28T11:20:01.471Z,995.05
2022-09-28T11:21:01.084Z,995.08
2022-09-28T11:22:00.688Z,995.1
2022-09-28T11:23:00.284Z,995.13
2022-09-28T11:23:59.870Z,995.13
2022-09-28T11:25:02.725Z,995.15
2022-09-28T11:26:01.124Z,995.18
2022-09-28T11:27:00.831Z,995.18
2022-09-28T11:28:00.534Z,995.18
2022-09-28T11:29:00.135Z,995.17
2022-09-28T11:29:59.794Z,995.19
2022-09-28T11:31:01.639Z,995.18
2022-09-28T11:32:01.291Z,995.19
2022-09-28T11:33:02.067Z,995.24
2022-09-28T11:34:01.066Z,995.23
2022-09-28T11:35:01.121Z,995.15
2022-09-28T11:36:01.042Z,995.17
2022-09-28T11:37:01.912Z,995.17
2022-09-28T11:38:01.438Z,995.21
2022-09-28T11:39:01.108Z,995.18
2022-09-28T11:40:01.110Z,995.12
2022-09-28T11:41:01.194Z,995.14
2022-09-28T11:42:00.971Z,995.16
2022-09-28T11:43:01.186Z,995.15
2022-09-28T11:44:01.387Z,995.11
2022-09-28T11:45:01.403Z,995.1
2022-09-28T11:46:01.662Z,995.12
2022-09-28T11:47:01.259Z,995.12
2022-09-28T11:48:01.180Z,995.06
2022-09-28T11:49:01.063Z,995.09
2022-09-28T11:50:01.076Z,995.06
2022-09-28T11:51:01.074Z,995.08
2022-09-28T11:52:00.646Z,995.08
2022-09-28T11:53:00.366Z,995.02
2022-09-28T11:53:59.954Z,995.02
2022-09-28T11:54:59.555Z,995
2022-09-28T11:56:03.261Z,995
2022-09-28T11:57:00.803Z,995.05
2022-09-28T11:58:01.076Z,995.02
2022-09-28T11:59:01.132Z,995.01
2022-09-28T12:00:01.133Z,995.03
2022-09-28T12:01:01.176Z,995.03
2022-09-28T12:02:00.729Z,995.05
2022-09-28T12:03:01.723Z,995.06
2022-09-28T12:04:01.774Z,995.04
2022-09-28T12:05:01.486Z,995.03
2022-09-28T12:06:01.168Z,995.08
2022-09-28T12:07:00.660Z,995.03
2022-09-28T12:08:04.453Z,995.04
2022-09-28T12:09:01.605Z,995.06
2022-09-28T12:10:01.756Z,995.1
2022-09-28T12:11:01.493Z,995.08
2022-09-28T12:12:00.795Z,995.07
2022-09-28T12:13:07.795Z,995.13
2022-09-28T12:14:01.119Z,995.1
2022-09-28T12:15:01.044Z,995.08
2022-09-28T12:16:31.597Z,995.11
2022-09-28T12:17:06.224Z,995.12
2022-09-28T12:18:11.357Z,995.11
2022-09-28T12:19:02.868Z,995.1
2022-09-28T12:20:01.050Z,995.09
2022-09-28T12:21:05.023Z,995.06
2022-09-28T12:22:01.071Z,995.06
2022-09-28T12:23:15.540Z,995.04
2022-09-28T12:24:01.094Z,995.05
2022-09-28T12:25:01.052Z,995.03
2022-09-28T12:26:01.091Z,995.06
2022-09-28T12:27:00.689Z,995.05
2022-09-28T12:28:00.304Z,995.03
2022-09-28T12:29:00.043Z,995.06
2022-09-28T12:29:59.709Z,995
2022-09-28T12:31:01.462Z,995.01
2022-09-28T12:32:01.136Z,995
2022-09-28T12:33:01.449Z,995.03
2022-09-28T12:34:01.175Z,995.01